Time;durP1;ratioP1;P1;durP2;ratioP2;P2;SDS_P1;SDS_P2;PMS_P1;PMS_P2;Temp;Humidity;BMP_temperature;BMP_pressure;BME280_temperature;BME280_humidity;BME280_pressure;Samples;Min_cycle;Max_cycle;Signal;HPM_P1;HPM_P2
2022/01/20 00:00:18;;;;;;;8.07;1.95;;;21.10;41.70;;;;;;5066272;28;20045;-61
2022/01/20 00:02:45;;;;;;;9.48;2.45;;;21.10;41.50;;;;;;5065746;28;20033;-60
2022/01/20 00:05:32;;;;;;;6.75;2.30;;;21.10;41.50;;;;;;5066084;28;35991;-60
2022/01/20 00:27:05;;;;;;;7.50;1.88;;;20.90;41.50;;;;;;5068527;28;20048;-60
2022/01/20 00:29:44;;;;;;;4.80;2.00;;;20.90;41.50;;;;;;5065415;28;20037;-60
2022/01/20 00:32:10;;;;;;;4.40;2.10;;;20.80;41.50;;;;;;5069625;28;20071;-60
2022/01/20 00:35:07;;;;;;;9.43;2.45;;;20.90;41.60;;;;;;5063102;28;38465;-61
2022/01/20 00:37:30;;;;;;;6.85;2.75;;;20.90;41.50;;;;;;5067989;28;20047;-60
2022/01/20 00:39:57;;;;;;;6.82;2.80;;;20.80;41.50;;;;;;5067841;28;20040;-61
2022/01/20 00:42:23;;;;;;;6.03;2.22;;;20.80;41.40;;;;;;5066177;28;20048;-60
2022/01/20 00:44:49;;;;;;;8.32;2.47;;;20.80;41.40;;;;;;5066961;28;20032;-61
2022/01/20 00:47:16;;;;;;;6.97;2.45;;;20.80;41.40;;;;;;5065708;28;38721;-61
2022/01/20 00:49:43;;;;;;;6.15;2.58;;;20.80;42.10;;;;;;5068273;28;20048;-60
2022/01/20 00:52:09;;;;;;;6.38;2.63;;;20.80;41.30;;;;;;5070551;28;20047;-60
2022/01/20 00:54:35;;;;;;;10.77;2.58;;;20.80;41.30;;;;;;5068582;28;20376;-60
2022/01/20 00:57:02;;;;;;;5.20;2.08;;;20.70;41.30;;;;;;5068318;28;20048;-61
2022/01/20 00:59:29;;;;;;;6.70;2.10;;;20.70;41.30;;;;;;5065624;28;20042;-60
2022/01/20 01:01:57;;;;;;;6.30;2.00;;;20.70;41.30;;;;;;5064728;28;43234;-61
2022/01/20 01:04:24;;;;;;;8.45;2.20;;;20.70;41.40;;;;;;5066841;28;20463;-60
2022/01/20 01:07:12;;;;;;;5.88;2.33;;;20.70;41.40;;;;;;5070182;28;20036;-61
2022/01/20 01:09:39;;;;;;;6.03;2.03;;;20.70;41.40;;;;;;5066528;28;21039;-61
2022/01/20 01:12:09;;;;;;;8.02;1.90;;;20.70;41.40;;;;;;5068379;28;20385;-60
2022/01/20 01:14:35;;;;;;;12.20;2.58;;;20.60;41.30;;;;;;5066226;28;20446;-60
2022/01/20 01:24:44;;;;;;;9.15;2.10;;;20.60;41.30;;;;;;5069853;28;20044;-61
2022/01/20 01:27:11;;;;;;;7.00;2.20;;;20.60;41.30;;;;;;5070889;28;20162;-60
2022/01/20 01:32:12;;;;;;;6.10;2.50;;;20.60;41.30;;;;;;5072283;28;20040;-60
2022/01/20 01:34:41;;;;;;;6.30;1.85;;;20.50;41.20;;;;;;5071353;28;20106;-60
2022/01/20 01:37:23;;;;;;;4.57;2.03;;;20.50;41.20;;;;;;5071572;28;20032;-61
2022/01/20 01:39:49;;;;;;;5.75;2.03;;;20.50;41.20;;;;;;5070941;28;20529;-60
2022/01/20 01:42:21;;;;;;;4.90;1.40;;;20.50;41.20;;;;;;5072654;28;20067;-60
2022/01/20 01:44:46;;;;;;;4.88;1.90;;;20.50;41.30;;;;;;5066974;28;41070;-61
2022/01/20 01:47:12;;;;;;;4.30;1.80;;;20.40;41.30;;;;;;5067719;28;20529;-61
2022/01/20 01:49:37;;;;;;;3.80;1.80;;;20.40;40.80;;;;;;5067735;28;20040;-60
2022/01/20 01:52:03;;;;;;;3.25;1.40;;;20.40;41.50;;;;;;5071873;28;20051;-60
2022/01/20 01:54:30;;;;;;;2.80;1.38;;;20.40;41.70;;;;;;5069265;28;20040;-60
2022/01/20 01:56:55;;;;;;;3.42;1.70;;;20.40;41.80;;;;;;5072210;28;20055;-61
2022/01/20 01:59:21;;;;;;;3.65;1.60;;;20.40;41.90;;;;;;5067539;28;44156;-60
2022/01/20 02:01:47;;;;;;;4.43;1.60;;;20.40;42.00;;;;;;5070715;28;20029;-60
2022/01/20 02:04:17;;;;;;;3.53;1.30;;;20.40;42.00;;;;;;5067165;28;20032;-60
2022/01/20 02:17:52;;;;;;;2.33;0.90;;;20.40;42.20;;;;;;5068269;28;21292;-60
2022/01/20 02:20:14;;;;;;;2.50;1.15;;;20.30;42.20;;;;;;5068536;28;20474;-60
2022/01/20 02:22:41;;;;;;;3.53;1.13;;;20.30;42.20;;;;;;5069634;28;20040;-60
2022/01/20 02:25:24;;;;;;;1.98;0.90;;;20.30;42.50;;;;;;5070759;28;21029;-61
2022/01/20 02:27:51;;;;;;;4.43;1.52;;;20.30;42.20;;;;;;5067293;28;38973;-60
2022/01/20 02:30:18;;;;;;;2.22;0.93;;;20.30;42.10;;;;;;5071029;28;20447;-61
2022/01/20 02:33:02;;;;;;;3.05;1.10;;;20.30;42.20;;;;;;5068806;28;20389;-60
2022/01/20 02:35:31;;;;;;;3.70;1.10;;;20.30;42.10;;;;;;5068713;28;20093;-61
2022/01/20 02:38:05;;;;;;;2.30;1.35;;;20.20;42.10;;;;;;5066594;28;20104;-60
2022/01/20 02:44:50;;;;;;;3.45;1.10;;;20.20;42.10;;;;;;5065798;28;26806;-60
2022/01/20 02:46:08;;;;;;;2.97;1.13;;;20.20;42.10;;;;;;5070696;28;20055;-61
2022/01/20 02:48:36;;;;;;;2.67;1.17;;;20.20;42.20;;;;;;5067102;28;20044;-60
2022/01/20 02:51:02;;;;;;;2.97;1.10;;;20.20;42.10;;;;;;5067979;28;20052;-61
2022/01/20 02:53:28;;;;;;;3.15;0.90;;;20.20;42.20;;;;;;5066791;28;20040;-61
2022/01/20 02:55:53;;;;;;;2.88;1.00;;;20.20;42.10;;;;;;5067866;28;31275;-61
2022/01/20 02:58:19;;;;;;;2.83;0.82;;;20.20;42.10;;;;;;5066378;28;20040;-60
2022/01/20 03:00:45;;;;;;;3.33;1.10;;;20.20;42.10;;;;;;5061513;28;20106;-61
2022/01/20 03:03:12;;;;;;;2.63;0.70;;;20.20;42.10;;;;;;5063384;28;20045;-61
2022/01/20 03:05:38;;;;;;;1.25;0.77;;;20.20;42.20;;;;;;5069288;28;20369;-61
2022/01/20 03:08:03;;;;;;;2.03;0.80;;;20.10;42.00;;;;;;5065473;28;38548;-60
2022/01/20 03:10:29;;;;;;;1.98;0.82;;;20.10;42.10;;;;;;5070942;28;20044;-61
2022/01/20 03:12:56;;;;;;;1.38;0.75;;;20.10;42.10;;;;;;5066020;28;20173;-61
2022/01/20 03:15:22;;;;;;;4.05;1.20;;;20.10;42.00;;;;;;5069439;28;20037;-61
2022/01/20 03:17:48;;;;;;;2.42;0.60;;;20.10;42.10;;;;;;5068311;28;20044;-60
2022/01/20 03:20:13;;;;;;;1.30;0.80;;;20.10;42.00;;;;;;5063364;28;20055;-60
2022/01/20 03:22:39;;;;;;;2.30;1.10;;;20.10;42.00;;;;;;5067649;28;38559;-61
2022/01/20 03:25:05;;;;;;;1.45;0.80;;;20.00;42.00;;;;;;5066903;28;20089;-61
2022/01/20 03:27:31;;;;;;;2.47;1.10;;;20.10;42.00;;;;;;5070875;28;20148;-60
2022/01/20 03:29:57;;;;;;;2.72;1.02;;;20.00;41.90;;;;;;5065154;28;20913;-60
2022/01/20 03:32:23;;;;;;;1.60;0.68;;;20.10;42.00;;;;;;5067755;28;20048;-61
2022/01/20 03:34:48;;;;;;;2.55;1.00;;;20.00;42.00;;;;;;5066468;28;20686;-61
2022/01/20 03:37:14;;;;;;;2.70;0.93;;;20.00;42.00;;;;;;5068191;28;41650;-60
2022/01/20 03:39:39;;;;;;;3.38;0.90;;;20.00;42.00;;;;;;5065550;28;20082;-60
2022/01/20 03:42:05;;;;;;;2.97;1.02;;;20.00;42.00;;;;;;5071512;28;20442;-61
2022/01/20 03:44:30;;;;;;;3.03;1.20;;;20.00;41.90;;;;;;5064882;28;20041;-60
2022/01/20 03:46:58;;;;;;;2.13;0.90;;;20.00;41.90;;;;;;5067117;28;20093;-61
2022/01/20 03:49:40;;;;;;;1.63;0.85;;;20.00;41.90;;;;;;5067562;28;20029;-61
2022/01/20 03:52:08;;;;;;;2.90;1.10;;;20.00;41.80;;;;;;5065437;28;36214;-61
2022/01/20 03:54:33;;;;;;;3.03;1.05;;;20.00;42.70;;;;;;5066213;28;20032;-61
2022/01/20 03:56:59;;;;;;;3.08;1.17;;;20.00;41.80;;;;;;5071057;28;20645;-60
2022/01/20 03:59:24;;;;;;;3.28;1.40;;;19.90;41.80;;;;;;5063647;28;20059;-60
2022/01/20 04:01:50;;;;;;;3.75;0.90;;;19.90;41.70;;;;;;5068657;28;20044;-61
2022/01/20 04:04:16;;;;;;;3.13;1.15;;;19.90;41.70;;;;;;5060921;28;46228;-60
2022/01/20 04:06:41;;;;;;;2.45;0.98;;;19.90;42.50;;;;;;5069741;28;20041;-61
2022/01/20 04:09:07;;;;;;;3.30;1.23;;;19.90;41.70;;;;;;5067924;28;20087;-60
2022/01/20 04:11:32;;;;;;;3.55;1.10;;;19.90;41.60;;;;;;5070057;28;20354;-61
2022/01/20 04:13:58;;;;;;;3.17;1.20;;;19.90;41.60;;;;;;5066343;28;20080;-60
2022/01/20 04:16:36;;;;;;;3.58;1.17;;;19.90;41.50;;;;;;5068231;28;20036;-60
2022/01/20 04:19:07;;;;;;;3.00;1.10;;;19.90;41.60;;;;;;5065428;28;33924;-61
2022/01/20 04:21:33;;;;;;;;;;;19.90;41.60;;;;;;5067360;28;20060;-60
2022/01/20 04:24:00;;;;;;;3.78;1.13;;;19.80;41.40;;;;;;5070256;28;19920;-61
2022/01/20 04:26:28;;;;;;;3.28;1.25;;;19.80;41.60;;;;;;5067399;28;20044;-60
2022/01/20 04:28:55;;;;;;;3.72;1.50;;;19.80;41.50;;;;;;5051337;28;20044;-60
2022/01/20 04:31:26;;;;;;;3.83;1.35;;;19.80;41.40;;;;;;5064365;28;20053;-60
2022/01/20 04:33:52;;;;;;;3.53;1.27;;;19.80;41.40;;;;;;5068594;28;43153;-60
2022/01/20 04:36:18;;;;;;;3.70;1.48;;;19.80;41.30;;;;;;5065446;28;20145;-61
2022/01/20 04:38:43;;;;;;;3.08;1.23;;;19.80;41.40;;;;;;5068513;28;20163;-61
2022/01/20 04:41:09;;;;;;;5.22;1.33;;;19.80;41.30;;;;;;5070458;28;20535;-60
2022/01/20 04:43:36;;;;;;;4.43;1.60;;;19.80;41.20;;;;;;5069945;28;20511;-60
2022/01/20 04:46:12;;;;;;;3.95;1.35;;;19.80;41.30;;;;;;5066309;28;20039;-60
2022/01/20 04:59:29;;;;;;;5.47;1.55;;;19.70;40.90;;;;;;5070879;28;20036;-60
2022/01/20 05:01:55;;;;;;;5.55;1.60;;;19.70;41.00;;;;;;5063274;28;41335;-61
2022/01/20 05:04:23;;;;;;;3.55;1.40;;;19.70;40.90;;;;;;5066947;28;20091;-60
2022/01/20 05:06:49;;;;;;;5.85;1.50;;;19.70;40.90;;;;;;5069755;28;20058;-61
2022/01/20 05:09:19;;;;;;;4.70;1.60;;;19.70;40.90;;;;;;5071794;28;20051;-61
2022/01/20 05:11:52;;;;;;;4.17;2.00;;;19.70;40.90;;;;;;5071048;28;20075;-60
2022/01/20 05:14:19;;;;;;;7.90;1.63;;;19.70;40.80;;;;;;5070374;28;41465;-61
2022/01/20 05:16:44;;;;;;;3.03;1.35;;;19.60;40.80;;;;;;5065608;28;20050;-60
2022/01/20 05:19:10;;;;;;;7.45;1.70;;;19.60;40.50;;;;;;5070241;28;20411;-61
2022/01/20 05:21:36;;;;;;;4.18;1.50;;;19.60;40.50;;;;;;5067053;28;20295;-60
2022/01/20 05:24:01;;;;;;;4.00;1.50;;;19.60;40.50;;;;;;5069249;28;20040;-60
2022/01/20 05:26:27;;;;;;;4.20;1.42;;;19.60;40.50;;;;;;5070974;28;20041;-60
2022/01/20 05:28:52;;;;;;;4.32;1.42;;;19.60;40.70;;;;;;5070127;28;38550;-60
2022/01/20 05:31:18;;;;;;;4.72;1.55;;;19.60;40.70;;;;;;5073176;28;20115;-60
2022/01/20 05:33:44;;;;;;;5.50;1.60;;;19.60;40.70;;;;;;5066565;28;20041;-60
2022/01/20 05:36:10;;;;;;;7.63;1.50;;;19.70;41.00;;;;;;5071678;28;20048;-60
2022/01/20 05:38:35;;;;;;;4.13;1.50;;;19.70;41.20;;;;;;5069354;28;20048;-60
2022/01/20 05:41:01;;;;;;;3.83;1.45;;;19.70;41.40;;;;;;5071740;28;21004;-60
2022/01/20 05:43:26;;;;;;;4.82;1.60;;;19.70;41.60;;;;;;5068136;28;38490;-60
2022/01/20 05:45:52;;;;;;;3.53;1.42;;;19.70;41.70;;;;;;5072044;28;20134;-60
2022/01/20 05:48:31;;;;;;;5.57;1.30;;;19.70;41.80;;;;;;5070002;28;20043;-60
2022/01/20 05:50:56;;;;;;;3.33;1.20;;;19.70;41.60;;;;;;5070159;28;20083;-60
2022/01/20 05:53:22;;;;;;;4.13;1.50;;;19.70;41.60;;;;;;5071426;28;20147;-60
2022/01/20 05:55:47;;;;;;;4.88;1.40;;;19.70;41.70;;;;;;5066179;28;20051;-60
2022/01/20 05:58:13;;;;;;;3.10;1.23;;;19.70;41.70;;;;;;5069365;28;38905;-60
2022/01/20 06:00:38;;;;;;;3.83;1.55;;;19.70;41.60;;;;;;5067883;28;20072;-60
2022/01/20 06:05:49;;;;;;;2.47;1.08;;;19.70;41.70;;;;;;5070952;28;20072;-59
2022/01/20 06:08:16;;;;;;;4.10;1.52;;;19.70;41.90;;;;;;5070572;28;20496;-60
2022/01/20 06:10:42;;;;;;;4.38;1.38;;;19.80;41.90;;;;;;5069941;28;43422;-60
2022/01/20 06:13:07;;;;;;;2.80;1.10;;;19.80;41.80;;;;;;5066525;28;20129;-60
2022/01/20 06:15:33;;;;;;;4.32;1.40;;;19.80;41.90;;;;;;5068549;28;20119;-60
2022/01/20 06:17:59;;;;;;;5.15;1.60;;;19.80;41.90;;;;;;5067683;28;20039;-60
2022/01/20 06:20:25;;;;;;;4.18;1.58;;;19.80;42.10;;;;;;5068985;28;20586;-60
2022/01/20 06:22:51;;;;;;;5.40;1.13;;;19.80;42.00;;;;;;5066045;28;20162;-60
2022/01/20 06:25:16;;;;;;;4.97;1.27;;;19.80;42.00;;;;;;5066785;28;38564;-59
2022/01/20 06:27:42;;;;;;;4.20;1.05;;;19.80;42.00;;;;;;5069934;28;20534;-60
2022/01/20 06:30:08;;;;;;;4.63;1.45;;;19.80;42.10;;;;;;5048134;28;20067;-59
2022/01/20 06:32:34;;;;;;;5.63;1.42;;;19.80;42.10;;;;;;5067502;28;20048;-58
2022/01/20 06:35:01;;;;;;;4.53;1.30;;;19.80;42.20;;;;;;5066310;28;20059;-59
2022/01/20 06:37:26;;;;;;;4.32;1.25;;;19.90;42.40;;;;;;5070738;28;20261;-60
2022/01/20 06:39:52;;;;;;;5.38;1.20;;;19.90;42.40;;;;;;5065519;28;36265;-59
2022/01/20 06:42:18;;;;;;;7.72;1.27;;;19.90;42.30;;;;;;5072219;28;20131;-63
2022/01/20 06:44:44;;;;;;;2.90;1.40;;;19.90;42.30;;;;;;5070514;28;20045;-59
2022/01/20 06:47:10;;;;;;;4.93;1.38;;;19.90;42.30;;;;;;5069738;28;20124;-59
2022/01/20 06:49:36;;;;;;;5.72;1.33;;;19.90;42.30;;;;;;5068123;28;20119;-59
2022/01/20 06:52:02;;;;;;;4.70;1.23;;;19.90;42.90;;;;;;5068574;28;20034;-60
2022/01/20 06:54:28;;;;;;;4.88;1.77;;;20.00;42.10;;;;;;5066152;28;36263;-60
2022/01/20 06:56:54;;;;;;;8.85;1.88;;;20.00;42.20;;;;;;5067542;28;20032;-60
2022/01/20 06:59:19;;;;;;;2.50;0.98;;;20.00;42.00;;;;;;5070945;28;20044;-60
2022/01/20 07:01:47;;;;;;;5.60;1.38;;;20.00;41.90;;;;;;5068890;28;20060;-60
2022/01/20 07:04:13;;;;;;;3.55;1.23;;;20.00;41.90;;;;;;5068544;28;20137;-59
2022/01/20 07:06:39;;;;;;;4.40;1.40;;;20.00;41.90;;;;;;5071577;28;20048;-60
2022/01/20 07:09:10;;;;;;;3.75;1.15;;;20.00;42.00;;;;;;5065707;28;43044;-60
2022/01/20 07:11:37;;;;;;;12.00;1.73;;;20.00;41.90;;;;;;5070850;28;20088;-59
2022/01/20 07:14:03;;;;;;;3.67;1.23;;;20.00;41.90;;;;;;5067160;28;20410;-59
2022/01/20 07:16:29;;;;;;;5.60;1.50;;;20.00;41.90;;;;;;5069176;28;20130;-60
2022/01/20 07:18:55;;;;;;;3.30;1.17;;;20.00;41.80;;;;;;5065159;28;20040;-60
2022/01/20 07:21:21;;;;;;;3.10;1.30;;;20.00;41.80;;;;;;5068252;28;38933;-59
2022/01/20 07:23:47;;;;;;;3.70;1.30;;;20.00;41.70;;;;;;5068548;28;20043;-59
2022/01/20 07:26:12;;;;;;;4.63;1.48;;;20.00;41.70;;;;;;5070706;28;20524;-59
2022/01/20 07:28:38;;;;;;;4.47;1.58;;;20.00;41.60;;;;;;5071470;28;20032;-59
2022/01/20 07:31:04;;;;;;;3.97;2.05;;;20.00;41.60;;;;;;5067666;28;20102;-59
2022/01/20 07:33:29;;;;;;;4.30;2.00;;;20.10;41.60;;;;;;5069413;28;20531;-60
2022/01/20 07:35:55;;;;;;;5.20;2.35;;;20.00;41.50;;;;;;5064968;28;36128;-59
2022/01/20 07:38:21;;;;;;;5.95;2.42;;;20.10;41.50;;;;;;5072402;28;20036;-59
2022/01/20 07:40:46;;;;;;;5.47;2.35;;;20.10;41.40;;;;;;5068763;28;20570;-59
2022/01/20 07:43:12;;;;;;;5.97;2.13;;;20.10;42.10;;;;;;5071848;28;20028;-59
2022/01/20 07:45:38;;;;;;;4.28;1.85;;;20.10;41.30;;;;;;5066514;28;20036;-59
2022/01/20 07:48:03;;;;;;;5.30;2.10;;;20.10;41.30;;;;;;5067276;28;20130;-60
2022/01/20 07:50:29;;;;;;;4.10;1.90;;;20.10;41.20;;;;;;5064828;28;41155;-59
2022/01/20 07:52:55;;;;;;;4.28;1.98;;;20.10;41.20;;;;;;5068227;28;20036;-59
2022/01/20 07:55:20;;;;;;;5.38;2.13;;;20.10;41.10;;;;;;5069590;28;20028;-60
2022/01/20 07:57:46;;;;;;;3.80;1.85;;;20.10;41.10;;;;;;5067938;28;20051;-58
2022/01/20 08:00:12;;;;;;;4.95;2.00;;;20.20;41.00;;;;;;5069832;28;21719;-60
2022/01/20 08:02:38;;;;;;;4.72;2.00;;;20.10;41.00;;;;;;5068726;28;20048;-60
2022/01/20 08:05:04;;;;;;;6.00;2.70;;;20.10;40.90;;;;;;5065199;28;46122;-60
2022/01/20 08:07:29;;;;;;;6.07;2.40;;;20.20;41.00;;;;;;5068277;28;20065;-59
2022/01/20 08:09:58;;;;;;;5.30;1.98;;;20.20;40.90;;;;;;5063424;28;20057;-59
2022/01/20 08:12:25;;;;;;;7.25;2.65;;;20.20;40.90;;;;;;5066959;28;20041;-59
2022/01/20 08:14:50;;;;;;;4.95;3.20;;;20.20;40.90;;;;;;5059669;28;20085;-59
2022/01/20 08:17:16;;;;;;;7.78;3.38;;;20.20;40.90;;;;;;5062154;28;41275;-59
2022/01/20 08:19:42;;;;;;;7.45;3.90;;;20.20;40.90;;;;;;5062756;28;20381;-59
2022/01/20 08:22:07;;;;;;;7.15;3.72;;;20.20;40.90;;;;;;5071164;28;20110;-59
2022/01/20 08:24:33;;;;;;;7.93;4.05;;;20.20;40.80;;;;;;5066901;28;20109;-60
2022/01/20 08:26:58;;;;;;;7.22;3.78;;;20.30;40.80;;;;;;5069060;28;20047;-59
2022/01/20 08:29:24;;;;;;;9.00;4.40;;;20.30;40.90;;;;;;5068324;28;20537;-58
2022/01/20 08:31:49;;;;;;;8.57;3.92;;;20.30;40.80;;;;;;5064332;28;36365;-59
2022/01/20 08:34:15;;;;;;;6.70;3.75;;;20.30;40.90;;;;;;5070769;28;20436;-61
2022/01/20 08:36:41;;;;;;;7.05;3.58;;;20.30;40.80;;;;;;5068420;28;20941;-58
2022/01/20 08:41:51;;;;;;;6.38;3.15;;;20.30;40.70;;;;;;5067619;28;20047;-59
2022/01/20 08:44:17;;;;;;;4.72;2.85;;;20.30;40.70;;;;;;5070922;28;20386;-58
2022/01/20 08:46:42;;;;;;;5.82;2.95;;;20.40;40.70;;;;;;5064681;28;38616;-59
2022/01/20 08:49:08;;;;;;;6.72;3.33;;;20.30;41.30;;;;;;5067296;28;20079;-58
2022/01/20 08:51:33;;;;;;;8.05;3.70;;;20.30;40.60;;;;;;5067368;28;20068;-59
2022/01/20 08:53:59;;;;;;;5.72;3.10;;;20.40;40.50;;;;;;5065695;28;20103;-58
2022/01/20 08:56:25;;;;;;;5.90;3.03;;;20.40;40.50;;;;;;5069417;28;20459;-57
2022/01/20 08:58:50;;;;;;;6.50;2.83;;;20.40;40.40;;;;;;5066984;28;20036;-59
2022/01/20 09:01:16;;;;;;;6.30;3.03;;;20.40;40.40;;;;;;5064916;28;38946;-58
2022/01/20 09:03:43;;;;;;;6.45;2.95;;;20.40;40.40;;;;;;5065936;28;20458;-59
2022/01/20 09:06:08;;;;;;;6.88;3.15;;;20.40;40.40;;;;;;5067319;28;20078;-58
2022/01/20 09:08:35;;;;;;;7.72;2.88;;;20.40;40.40;;;;;;5064578;28;20060;-59
2022/01/20 09:11:01;;;;;;;5.47;2.83;;;20.40;40.50;;;;;;5065649;28;20044;-59
2022/01/20 09:16:11;;;;;;;5.93;2.50;;;20.50;40.80;;;;;;5066835;28;20056;-58
2022/01/20 09:18:37;;;;;;;7.18;3.03;;;20.50;40.80;;;;;;5068138;28;20036;-58
2022/01/20 09:21:03;;;;;;;4.28;2.25;;;20.50;40.90;;;;;;5063933;28;20036;-58
2022/01/20 09:23:29;;;;;;;4.70;2.35;;;20.50;40.90;;;;;;5067953;28;20033;-58
2022/01/20 09:25:55;;;;;;;5.68;2.90;;;20.50;40.90;;;;;;5064279;28;20041;-59
2022/01/20 09:28:20;;;;;;;4.78;2.40;;;20.50;40.80;;;;;;5063215;28;36224;-59
2022/01/20 09:30:47;;;;;;;5.53;2.40;;;20.50;40.80;;;;;;5064410;28;20096;-58
2022/01/20 09:33:25;;;;;;;4.93;2.38;;;20.50;40.80;;;;;;5066752;28;20098;-58
2022/01/20 09:35:51;;;;;;;5.20;2.90;;;20.50;40.70;;;;;;5069594;28;20510;-58
2022/01/20 09:38:17;;;;;;;5.03;2.50;;;20.50;40.60;;;;;;5066566;28;20082;-58
2022/01/20 09:40:43;;;;;;;4.15;2.08;;;20.50;40.50;;;;;;5070298;28;20064;-58
2022/01/20 09:43:11;;;;;;;6.25;2.35;;;20.50;40.50;;;;;;5070415;28;38759;-59
2022/01/20 09:45:38;;;;;;;6.80;2.45;;;20.60;40.40;;;;;;5074216;28;20032;-59
2022/01/20 09:48:04;;;;;;;4.47;2.28;;;20.60;40.50;;;;;;5070659;28;20032;-59
2022/01/20 09:50:29;;;;;;;5.18;2.40;;;20.50;40.60;;;;;;5067987;28;20834;-58
2022/01/20 09:52:59;;;;;;;5.40;2.35;;;20.60;40.60;;;;;;5058678;28;20450;-58
2022/01/20 09:55:25;;;;;;;6.10;1.77;;;20.60;40.70;;;;;;5063897;28;20048;-58
2022/01/20 09:57:51;;;;;;;5.15;2.10;;;20.60;40.60;;;;;;5067952;28;43133;-58
2022/01/20 10:00:18;;;;;;;4.70;1.85;;;20.60;40.50;;;;;;5070989;28;20028;-59
2022/01/20 10:03:06;;;;;;;6.43;2.00;;;20.60;40.50;;;;;;5068733;28;20584;-59
2022/01/20 10:05:38;;;;;;;4.50;2.10;;;20.60;40.40;;;;;;5068529;28;20041;-57
2022/01/20 10:08:16;;;;;;;4.30;2.10;;;20.60;40.40;;;;;;5067172;28;20071;-58
2022/01/20 10:10:57;;;;;;;6.55;2.40;;;20.60;40.30;;;;;;5065274;28;38620;-59
2022/01/20 10:13:24;;;;;;;;;;;20.70;40.30;;;;;;5070979;28;20035;-58
2022/01/20 10:16:00;;;;;;;3.97;1.95;;;20.70;40.20;;;;;;5070506;28;19920;-59
2022/01/20 10:18:28;;;;;;;5.55;2.08;;;20.60;40.30;;;;;;5069532;28;20063;-58
2022/01/20 10:20:57;;;;;;;4.45;2.20;;;20.60;40.20;;;;;;5070054;28;20074;-58
2022/01/20 10:23:28;;;;;;;6.75;2.58;;;20.60;40.10;;;;;;5061907;28;20032;-59
2022/01/20 10:26:22;;;;;;;4.88;2.20;;;20.60;40.10;;;;;;5063741;28;36475;-59
2022/01/20 10:28:49;;;;;;;7.13;2.38;;;20.70;40.10;;;;;;5067490;28;20052;-59
2022/01/20 10:31:16;;;;;;;6.57;2.40;;;20.70;40.00;;;;;;5071975;28;20040;-59
2022/01/20 10:33:46;;;;;;;5.68;2.15;;;20.70;40.00;;;;;;5065346;28;20142;-59
2022/01/20 10:36:12;;;;;;;4.80;2.25;;;20.70;40.00;;;;;;5070684;28;20626;-59
2022/01/20 10:38:52;;;;;;;4.65;2.08;;;20.70;40.00;;;;;;5066271;28;26584;-59
2022/01/20 10:41:32;;;;;;;3.85;2.17;;;20.70;39.90;;;;;;5069058;28;20036;-59
2022/01/20 10:44:04;;;;;;;4.55;1.98;;;20.70;40.00;;;;;;5070298;28;20032;-58
2022/01/20 10:46:44;;;;;;;7.70;2.10;;;20.70;39.90;;;;;;5067005;28;20095;-59
2022/01/20 10:49:10;;;;;;;4.88;1.83;;;20.70;39.80;;;;;;5069665;28;20044;-59
2022/01/20 10:51:36;;;;;;;3.72;2.00;;;20.80;39.90;;;;;;5067998;28;20041;-59
2022/01/20 10:54:05;;;;;;;3.70;1.95;;;20.80;40.00;;;;;;5065329;28;36462;-59
2022/01/20 10:56:30;;;;;;;4.47;1.70;;;20.80;39.80;;;;;;5068012;28;20044;-59
2022/01/20 10:59:06;;;;;;;4.75;1.80;;;20.80;39.80;;;;;;5068234;28;20041;-59
2022/01/20 11:01:31;;;;;;;5.75;2.13;;;20.80;39.80;;;;;;5070599;28;20273;-59
2022/01/20 11:03:58;;;;;;;5.63;2.10;;;20.80;39.80;;;;;;5064425;28;20387;-59
2022/01/20 11:06:24;;;;;;;4.40;1.88;;;20.80;39.80;;;;;;5066016;28;39099;-59
2022/01/20 11:08:51;;;;;;;4.80;2.30;;;20.80;39.90;;;;;;5048445;28;21302;-58
2022/01/20 11:11:16;;;;;;;5.00;1.70;;;20.80;39.80;;;;;;5067609;28;20129;-58
2022/01/20 11:13:42;;;;;;;3.40;1.73;;;20.80;39.80;;;;;;5068056;28;20931;-58
2022/01/20 11:16:08;;;;;;;5.60;2.13;;;20.80;39.80;;;;;;5069697;28;20091;-59
2022/01/20 11:18:34;;;;;;;3.17;1.60;;;20.80;39.80;;;;;;5065925;28;20615;-58
2022/01/20 11:21:02;;;;;;;3.33;1.70;;;20.90;40.00;;;;;;5062532;28;31401;-58
2022/01/20 11:23:39;;;;;;;5.55;1.70;;;20.80;40.00;;;;;;5068246;28;20093;-59
2022/01/20 11:26:05;;;;;;;5.60;1.98;;;20.90;40.20;;;;;;5067437;28;20040;-59
2022/01/20 11:28:31;;;;;;;3.92;1.45;;;20.80;40.20;;;;;;5070629;28;20054;-59
2022/01/20 11:31:05;;;;;;;3.90;1.70;;;20.90;40.40;;;;;;5069638;28;20093;-58
2022/01/20 11:33:36;;;;;;;4.75;1.67;;;20.80;40.30;;;;;;5068664;28;20040;-59
2022/01/20 11:36:02;;;;;;;4.43;1.60;;;20.80;40.50;;;;;;5069231;28;36513;-58
2022/01/20 11:38:46;;;;;;;4.72;1.50;;;20.90;40.60;;;;;;5065196;28;20154;-59
2022/01/20 11:41:21;;;;;;;5.03;1.50;;;20.90;40.60;;;;;;5067713;28;20047;-58
2022/01/20 11:43:51;;;;;;;7.88;1.98;;;20.90;40.60;;;;;;5068695;28;20622;-58
2022/01/20 11:46:27;;;;;;;3.00;1.37;;;20.90;40.70;;;;;;5069339;28;20040;-59
2022/01/20 11:49:05;;;;;;;6.13;1.90;;;20.90;40.70;;;;;;5065332;28;41231;-59
2022/01/20 11:51:51;;;;;;;4.82;1.48;;;20.90;40.70;;;;;;5066457;28;20063;-59
2022/01/20 11:54:41;;;;;;;4.88;1.55;;;20.90;40.60;;;;;;5067221;28;20068;-62
2022/01/20 11:57:20;;;;;;;6.72;1.65;;;20.90;40.60;;;;;;5067311;28;20044;-58
2022/01/20 11:59:59;;;;;;;5.10;1.75;;;20.90;40.60;;;;;;5066858;28;20037;-59
2022/01/20 12:02:28;;;;;;;3.03;1.42;;;20.90;40.50;;;;;;5067179;28;36550;-59
2022/01/20 12:04:53;;;;;;;3.38;1.42;;;20.90;41.20;;;;;;5065990;28;20041;-59
2022/01/20 12:07:31;;;;;;;5.32;1.70;;;20.90;40.40;;;;;;5068540;28;20893;-59
2022/01/20 12:10:08;;;;;;;4.63;1.60;;;21.00;40.40;;;;;;5069842;28;20959;-59
2022/01/20 12:12:34;;;;;;;4.50;1.63;;;20.90;40.20;;;;;;5067402;28;20072;-59
2022/01/20 12:15:17;;;;;;;5.40;1.52;;;21.00;40.20;;;;;;5069578;28;20447;-59
2022/01/20 12:17:54;;;;;;;3.42;1.52;;;21.00;40.20;;;;;;5065747;28;43626;-59
2022/01/20 12:20:21;;;;;;;3.75;1.58;;;21.00;40.20;;;;;;5068502;28;20032;-59
2022/01/20 12:22:48;;;;;;;3.92;1.63;;;21.00;40.20;;;;;;5068203;28;20121;-59
2022/01/20 12:25:27;;;;;;;3.42;1.67;;;20.90;40.10;;;;;;5066139;28;20071;-59
2022/01/20 12:28:04;;;;;;;4.50;1.70;;;21.00;40.10;;;;;;5073251;28;20075;-59
2022/01/20 12:30:29;;;;;;;2.70;1.50;;;21.00;40.00;;;;;;5067844;28;38563;-59
2022/01/20 12:33:10;;;;;;;3.40;1.30;;;21.00;39.90;;;;;;5071760;28;20094;-59
2022/01/20 12:35:40;;;;;;;4.43;1.40;;;21.00;39.90;;;;;;5067005;28;20040;-60
2022/01/20 12:38:29;;;;;;;5.70;1.75;;;21.00;40.00;;;;;;5067225;28;20394;-59
2022/01/20 12:41:10;;;;;;;3.45;1.45;;;21.00;39.90;;;;;;5069821;28;20040;-60
2022/01/20 12:43:44;;;;;;;2.90;1.35;;;21.00;39.90;;;;;;5066497;28;20055;-59
2022/01/20 12:46:13;;;;;;;3.08;1.38;;;21.00;40.00;;;;;;5064981;28;36833;-59
2022/01/20 12:48:50;;;;;;;3.95;1.40;;;21.00;40.00;;;;;;5069849;28;20047;-59
2022/01/20 12:51:16;;;;;;;3.38;1.20;;;21.00;40.10;;;;;;5064653;28;20083;-59
2022/01/20 12:53:52;;;;;;;4.25;1.05;;;21.00;40.20;;;;;;5070618;28;20052;-59
2022/01/20 12:56:18;;;;;;;3.10;1.10;;;21.10;40.40;;;;;;5068655;28;20381;-59
2022/01/20 12:58:52;;;;;;;5.68;1.27;;;21.20;40.30;;;;;;5067311;28;41027;-59
2022/01/20 13:01:18;;;;;;;2.05;1.13;;;21.30;40.20;;;;;;5068185;28;20058;-59
2022/01/20 13:03:44;;;;;;;4.70;1.30;;;21.30;40.00;;;;;;5069931;28;20043;-59
2022/01/20 13:06:22;;;;;;;3.85;1.50;;;21.40;40.10;;;;;;5067185;28;20036;-59
2022/01/20 13:09:05;;;;;;;5.55;1.45;;;21.40;40.10;;;;;;5065013;28;20052;-59
2022/01/20 13:11:42;;;;;;;3.58;1.20;;;21.40;40.10;;;;;;5068398;28;20049;-59
2022/01/20 13:14:10;;;;;;;3.75;1.25;;;21.30;40.20;;;;;;5069068;28;38884;-59
2022/01/20 13:16:36;;;;;;;2.92;1.08;;;21.30;40.20;;;;;;5071776;28;20076;-59
2022/01/20 13:19:05;;;;;;;4.28;1.25;;;21.20;40.30;;;;;;5076130;28;20063;-59
2022/01/20 13:21:36;;;;;;;5.22;1.92;;;21.20;40.20;;;;;;5068622;28;20090;-59
2022/01/20 13:24:03;;;;;;;4.53;1.60;;;21.20;40.20;;;;;;5072471;28;20040;-59
2022/01/20 13:26:29;;;;;;;4.10;1.63;;;21.20;40.10;;;;;;5070495;28;20036;-59
2022/01/20 13:29:05;;;;;;;4.00;1.52;;;21.20;40.00;;;;;;5071639;28;39339;-59
2022/01/20 13:31:31;;;;;;;3.78;1.65;;;21.20;40.00;;;;;;5069588;28;20045;-59
2022/01/20 13:34:27;;;;;;;5.15;1.50;;;21.20;40.00;;;;;;5073036;28;20040;-59
2022/01/20 13:36:53;;;;;;;5.47;1.80;;;21.20;40.00;;;;;;5053469;28;20151;-58
2022/01/20 13:39:35;;;;;;;4.07;1.70;;;21.20;40.20;;;;;;5063163;28;20900;-59
2022/01/20 13:42:09;;;;;;;9.27;1.70;;;21.20;40.30;;;;;;5069528;28;45745;-59
2022/01/20 13:47:19;;;;;;;2.72;1.52;;;21.20;40.80;;;;;;5068548;28;20093;-59
2022/01/20 13:49:50;;;;;;;4.32;1.60;;;21.20;41.00;;;;;;5071397;28;20040;-58
2022/01/20 13:52:19;;;;;;;;;;;21.20;40.90;;;;;;5067089;28;20525;-59
2022/01/20 13:54:55;;;;;;;6.53;1.80;;;21.20;41.00;;;;;;5063143;28;38758;-59
2022/01/20 13:57:23;;;;;;;4.80;1.98;;;21.20;41.00;;;;;;5066867;28;20044;-58
2022/01/20 13:59:52;;;;;;;5.28;1.83;;;21.20;41.00;;;;;;5068287;28;20044;-58